< Typhoon 195319 1953 Season Typhoon 195321 >
Typhoon 195320 (CORA)
General InformationTrack Information on Google Maps || Disaster Info.ResourceGoogle EarthGE AnimationAtom FeedGeoJSON
Detalied Best Track (Time Zone = UTC)
Year Month Day Hour Lat. Long. Pressure (hPa) Wind (kt) Class Image Chart
1953 11 10 18 6.8 145.0 1002 0 2 -- Chart
1953 11 11 00 6.9 143.5 1004 0 2 -- Chart
1953 11 11 06 7.0 141.8 1004 0 2 -- Chart
1953 11 11 12 7.2 140.1 1004 0 2 -- Chart
1953 11 11 18 7.6 138.5 1004 0 2 -- Chart
1953 11 12 00 8.1 137.7 1004 0 2 -- Chart
1953 11 12 06 8.1 137.4 1004 0 2 -- Chart
1953 11 12 12 8.7 137.2 1004 0 2 -- Chart
1953 11 12 18 9.3 136.5 1002 0 2 -- Chart
1953 11 13 00 9.9 135.8 1000 0 2 -- Chart
1953 11 13 06 10.5 135.2 996 0 2 -- Chart
1953 11 13 12 11.0 134.6 996 0 9 -- Chart
1953 11 13 18 11.6 133.9 995 0 9 -- Chart
1953 11 14 00 12.0 133.2 995 0 9 -- Chart
1953 11 14 06 12.0 132.3 995 0 9 -- Chart
1953 11 14 12 12.0 131.4 990 0 9 -- Chart
1953 11 14 18 12.2 130.5 985 0 9 -- Chart
1953 11 15 00 12.5 129.5 980 0 9 -- Chart
1953 11 15 06 13.4 128.3 978 0 9 -- Chart
1953 11 15 12 14.2 127.5 975 0 9 -- Chart
1953 11 15 18 15.0 126.5 975 0 9 -- Chart
1953 11 16 00 15.7 125.3 960 0 9 -- Chart
1953 11 16 06 16.2 124.4 960 0 9 -- Chart
1953 11 16 12 16.8 123.3 960 0 9 -- Chart
1953 11 16 18 17.0 122.3 960 0 9 -- Chart
1953 11 17 00 17.3 121.8 960 0 9 -- Chart
1953 11 17 06 18.0 121.0 960 0 9 -- Chart
1953 11 17 12 18.1 120.1 960 0 9 -- Chart
1953 11 17 18 19.0 119.6 960 0 9 -- Chart
1953 11 18 00 20.0 120.2 960 0 9 -- Chart
1953 11 18 06 20.5 120.6 970 0 9 -- Chart
1953 11 18 12 21.0 121.2 980 0 9 -- Chart
1953 11 18 18 21.0 122.0 990 0 9 -- Chart
1953 11 19 00 20.4 122.6 995 0 9 -- Chart
1953 11 19 06 19.7 122.2 1004 0 9 -- Chart
1953 11 19 12 19.4 123.0 1008 0 9 -- Chart
1953 11 19 18 19.0 124.0 1008 0 6 -- Chart
1953 11 20 00 19.0 125.2 1010 0 6 -- Chart
1953 11 20 06 19.3 126.2 1010 0 6 -- Chart
1953 11 20 12 19.7 127.0 1014 0 6 -- Chart
Japan Meteorological Agency Best Track Data | Correction Date : 1990-10-17
< Typhoon 195319 1953 Season Typhoon 195321 >

Help